LSZH

Zürich Airport

Airport
ICAO code
LSZH
IATA Code
ZRH
Summary
ICAO Region
EUR
ICAO Territory
Location

Kloten, Zürich

Serving
Zürich
Elevation
1416 ft
Coordinates
47° 27' 53" N , 8° 32' 57" E
KCC
Metar
Observation
LSZH 292020Z 35002KT 9999 -RA FEW010 SCT025 BKN045 10/09 Q1006 NOSIG
Station
Zurich-Kloten
Date/Time
2022-09-29 20:20:00
Wind direction
350°
Wind speed
02 kts
Lowest cloud amount
few clouds
Temperature
10°C
Dew point
9°C
Humidity
93%
QNH
1006 hPa
Weather condition
light rain

An airport serving Grenchen, a municipality in the district of Lebern in the canton of Solothurn in Switzerland.

Climatology

Temperate Marine climate/Oceanic climate (Köppen climate classification Cfb).

Runways

Designator Length Width Surface Rops
10/28 2500 60 CON Yes/Yes
14/32 3300 60 CON Yes/Yes
16/34 3700 60 CON Yes/Yes

SKYbrary Partners:

Safety knowledge contributed by: